createdAt,value
2018-10-16T00:01:11.709Z,99316.05
2018-10-16T00:03:40.344Z,99316.81
2018-10-16T00:06:09.518Z,99323.20
2018-10-16T00:08:38.553Z,99321.14
2018-10-16T00:11:07.120Z,99332.13
2018-10-16T00:13:35.789Z,99337.63
2018-10-16T00:16:04.376Z,99343.36
2018-10-16T00:18:32.985Z,99341.00
2018-10-16T00:21:01.545Z,99347.83
2018-10-16T00:23:30.141Z,99354.29
2018-10-16T00:25:58.691Z,99355.22
2018-10-16T00:28:27.340Z,99354.38
2018-10-16T00:30:55.893Z,99346.95
2018-10-16T00:33:24.480Z,99353.24
2018-10-16T00:35:53.037Z,99355.63
2018-10-16T00:38:21.673Z,99362.73
2018-10-16T00:40:50.256Z,99369.28
2018-10-16T00:43:18.841Z,99366.21
2018-10-16T00:45:47.405Z,99369.84
2018-10-16T00:48:15.984Z,99368.63
2018-10-16T00:50:44.561Z,99373.41
2018-10-16T00:53:13.145Z,99368.83
2018-10-16T00:55:41.697Z,99365.58
2018-10-16T00:58:10.548Z,99366.40
2018-10-16T01:00:39.112Z,99360.41
2018-10-16T01:03:07.728Z,99368.46
2018-10-16T01:05:36.293Z,99365.59
2018-10-16T01:08:04.909Z,99368.02
2018-10-16T01:10:33.474Z,99374.31
2018-10-16T01:13:02.070Z,99372.84
2018-10-16T01:15:30.619Z,99372.35
2018-10-16T01:17:59.225Z,99377.28
2018-10-16T01:20:27.851Z,99386.44
2018-10-16T01:22:56.427Z,99378.76
2018-10-16T01:25:25.394Z,99381.83
2018-10-16T01:27:53.977Z,99385.28
2018-10-16T01:30:22.539Z,99379.09
2018-10-16T01:35:30.489Z,99382.48
2018-10-16T01:37:59.081Z,99386.82
2018-10-16T01:40:27.628Z,99385.30
2018-10-16T01:42:56.213Z,99386.73
2018-10-16T01:45:25.051Z,99382.70
2018-10-16T01:47:53.637Z,99387.30
2018-10-16T01:50:22.176Z,99381.94
2018-10-16T01:52:50.767Z,99382.05
2018-10-16T01:55:19.310Z,99378.15
2018-10-16T01:57:47.892Z,99374.30
2018-10-16T02:00:16.445Z,99377.54
2018-10-16T02:02:45.122Z,99378.61
2018-10-16T02:05:13.612Z,99379.30
2018-10-16T02:07:42.153Z,99381.59
2018-10-16T02:10:10.760Z,99385.45
2018-10-16T02:12:39.305Z,99390.67
2018-10-16T02:15:08.960Z,99386.45
2018-10-16T02:17:38.050Z,99395.91
2018-10-16T02:20:07.029Z,99390.91
2018-10-16T02:22:35.582Z,99385.98
2018-10-16T02:25:26.213Z,99389.34
2018-10-16T02:27:54.904Z,99382.33
2018-10-16T02:30:24.318Z,99391.11
2018-10-16T02:32:53.036Z,99391.59
2018-10-16T02:35:21.646Z,99394.08
2018-10-16T02:37:51.184Z,99396.67
2018-10-16T02:40:21.284Z,99402.30
2018-10-16T02:42:50.067Z,99397.14
2018-10-16T02:45:18.646Z,99405.27
2018-10-16T02:47:47.381Z,99404.72
2018-10-16T02:50:16.262Z,99402.95
2018-10-16T02:52:44.856Z,99404.04
2018-10-16T02:55:13.544Z,99404.97
2018-10-16T02:57:42.444Z,99399.98
2018-10-16T03:00:11.048Z,99405.13
2018-10-16T03:02:39.666Z,99407.52
2018-10-16T03:05:08.277Z,99412.22
2018-10-16T03:07:37.037Z,99408.22
2018-10-16T03:10:05.873Z,99405.98
2018-10-16T03:12:36.342Z,99401.59
2018-10-16T03:15:08.052Z,99413.75
2018-10-16T03:17:37.830Z,99414.58
2018-10-16T03:20:07.199Z,99412.37
2018-10-16T03:22:35.757Z,99411.79
2018-10-16T03:25:05.505Z,99410.98
2018-10-16T03:27:34.066Z,99418.38
2018-10-16T03:30:02.673Z,99413.10
2018-10-16T03:32:31.232Z,99412.02
2018-10-16T03:34:59.849Z,99417.76
2018-10-16T03:37:28.427Z,99421.74
2018-10-16T03:39:57.306Z,99429.16
2018-10-16T03:42:25.990Z,99427.59
2018-10-16T03:44:54.557Z,99426.05
2018-10-16T03:47:23.111Z,99427.05
2018-10-16T03:49:51.703Z,99435.68
2018-10-16T03:52:20.258Z,99421.72
2018-10-16T03:54:48.842Z,99425.48
2018-10-16T03:57:17.396Z,99435.65
2018-10-16T03:59:46.026Z,99438.63
2018-10-16T04:02:14.732Z,99441.06
2018-10-16T04:04:43.308Z,99443.31
2018-10-16T04:07:11.993Z,99439.23
2018-10-16T04:09:40.588Z,99443.28
2018-10-16T04:12:09.350Z,99440.11
2018-10-16T04:14:38.308Z,99441.48
2018-10-16T04:17:09.457Z,99445.47
2018-10-16T04:19:43.439Z,99444.91
2018-10-16T04:22:18.065Z,99444.53
2018-10-16T04:24:55.649Z,99442.45
2018-10-16T04:27:24.605Z,99444.27
2018-10-16T04:29:57.214Z,99441.69
2018-10-16T04:32:25.813Z,99442.12
2018-10-16T04:34:54.501Z,99445.39
2018-10-16T04:37:23.073Z,99442.58
2018-10-16T04:39:51.678Z,99442.98
2018-10-16T04:42:20.213Z,99447.10
2018-10-16T04:44:48.766Z,99452.94
2018-10-16T04:47:17.353Z,99452.42
2018-10-16T04:49:45.893Z,99449.92
2018-10-16T04:52:14.550Z,99453.90
2018-10-16T04:54:43.098Z,99450.02
2018-10-16T04:57:11.674Z,99455.48
2018-10-16T04:59:40.230Z,99453.97
2018-10-16T05:02:08.839Z,99459.20
2018-10-16T05:04:37.390Z,99460.33
2018-10-16T05:07:05.974Z,99466.17
2018-10-16T05:09:34.527Z,99469.33
2018-10-16T05:12:03.153Z,99468.48
2018-10-16T05:14:33.497Z,99473.14
2018-10-16T05:17:02.086Z,99475.42
2018-10-16T05:19:31.324Z,99474.16
2018-10-16T05:21:59.972Z,99475.95
2018-10-16T05:24:28.503Z,99470.80
2018-10-16T05:26:57.073Z,99473.60
2018-10-16T05:29:25.616Z,99479.78
2018-10-16T05:31:54.188Z,99481.55
2018-10-16T05:34:22.721Z,99487.07
2018-10-16T05:36:51.293Z,99484.83
2018-10-16T05:39:19.953Z,99485.91
2018-10-16T05:41:48.465Z,99490.80
2018-10-16T05:44:17.024Z,99492.38
2018-10-16T05:46:45.604Z,99493.40
2018-10-16T05:49:14.154Z,99498.08
2018-10-16T05:51:42.729Z,99501.81
2018-10-16T05:54:11.323Z,99502.37
2018-10-16T05:56:39.902Z,99500.64
2018-10-16T05:59:08.444Z,99503.81
2018-10-16T06:01:37.019Z,99505.31
2018-10-16T06:04:05.931Z,99503.17
2018-10-16T06:06:34.516Z,99509.00
2018-10-16T06:09:03.254Z,99510.06
2018-10-16T06:11:31.841Z,99512.24
2018-10-16T06:14:00.384Z,99515.89
2018-10-16T06:16:28.961Z,99521.25
2018-10-16T06:18:57.520Z,99523.27
2018-10-16T06:21:26.117Z,99529.66
2018-10-16T06:23:54.717Z,99528.13
2018-10-16T06:26:23.399Z,99526.69
2018-10-16T06:28:51.991Z,99524.84
2018-10-16T06:31:20.625Z,99528.15
2018-10-16T06:33:49.293Z,99537.28
2018-10-16T06:36:17.912Z,99541.04
2018-10-16T06:38:46.507Z,99545.73
2018-10-16T06:41:15.168Z,99545.30
2018-10-16T06:43:43.694Z,99540.18
2018-10-16T06:46:12.690Z,99545.38
2018-10-16T06:48:41.535Z,99550.59
2018-10-16T06:51:09.909Z,99544.76
2018-10-16T06:53:38.530Z,99549.70
2018-10-16T06:56:07.767Z,99544.57
2018-10-16T06:58:36.373Z,99551.02
2018-10-16T07:01:05.186Z,99548.42
2018-10-16T07:03:33.785Z,99551.53
2018-10-16T07:06:02.371Z,99550.91
2018-10-16T07:08:30.997Z,99552.22
2018-10-16T07:10:59.556Z,99552.69
2018-10-16T07:13:28.154Z,99556.75
2018-10-16T07:15:56.724Z,99558.86
2018-10-16T07:18:25.338Z,99567.55
2018-10-16T07:20:53.911Z,99568.84
2018-10-16T07:23:22.579Z,99566.77
2018-10-16T07:25:51.138Z,99571.12
2018-10-16T07:28:19.769Z,99564.42
2018-10-16T07:30:48.356Z,99561.23
2018-10-16T07:33:16.973Z,99565.67
2018-10-16T07:35:45.567Z,99571.80
2018-10-16T07:38:14.289Z,99575.25
2018-10-16T07:40:42.762Z,99571.23
2018-10-16T07:43:11.406Z,99573.13
2018-10-16T07:45:40.019Z,99581.15
2018-10-16T07:48:08.665Z,99581.91
2018-10-16T07:50:37.248Z,99581.69
2018-10-16T07:53:06.084Z,99584.98
2018-10-16T07:55:34.708Z,99585.12
2018-10-16T07:58:03.352Z,99587.34
2018-10-16T08:00:31.991Z,99587.56
2018-10-16T08:03:00.625Z,99586.49
2018-10-16T08:05:29.221Z,99590.28
2018-10-16T08:07:57.829Z,99584.59
2018-10-16T08:10:26.459Z,99586.75
2018-10-16T08:12:55.077Z,99580.39
2018-10-16T08:15:23.713Z,99575.05
2018-10-16T08:17:52.362Z,99582.75
2018-10-16T08:20:20.997Z,99581.91
2018-10-16T08:22:49.602Z,99577.91
2018-10-16T08:25:18.196Z,99579.86
2018-10-16T08:27:46.758Z,99576.20
2018-10-16T08:30:15.405Z,99575.08
2018-10-16T08:32:44.017Z,99579.09
2018-10-16T08:35:12.606Z,99577.03
2018-10-16T08:39:50.857Z,99574.17
2018-10-16T08:42:46.841Z,99576.80
2018-10-16T08:45:27.484Z,99578.81
2018-10-16T08:48:07.087Z,99574.67
2018-10-16T08:50:48.565Z,99581.17
2018-10-16T08:53:17.207Z,99581.22
2018-10-16T08:55:45.939Z,99576.77
2018-10-16T08:58:14.521Z,99574.19
2018-10-16T09:00:43.112Z,99575.72
2018-10-16T09:03:11.650Z,99571.42
2018-10-16T09:05:40.253Z,99572.33
2018-10-16T09:08:08.834Z,99569.14
2018-10-16T09:10:37.433Z,99566.11
2018-10-16T09:13:06.077Z,99565.62
2018-10-16T09:15:34.603Z,99570.98
2018-10-16T09:18:03.186Z,99571.68
2018-10-16T09:20:31.733Z,99566.39
2018-10-16T09:23:00.321Z,99571.30
2018-10-16T09:25:28.942Z,99567.84
2018-10-16T09:27:57.559Z,99567.03
2018-10-16T09:30:26.117Z,99569.48
2018-10-16T09:32:54.734Z,99574.36
2018-10-16T09:35:23.321Z,99568.26
2018-10-16T09:37:51.971Z,99569.98
2018-10-16T09:40:20.504Z,99563.64
2018-10-16T09:42:49.098Z,99565.21
2018-10-16T09:45:17.680Z,99567.77
2018-10-16T09:47:46.277Z,99573.40
2018-10-16T09:50:14.846Z,99573.42
2018-10-16T09:52:43.445Z,99577.62
2018-10-16T09:55:12.017Z,99578.02
2018-10-16T09:57:40.601Z,99576.92
2018-10-16T10:00:16.004Z,99573.31
2018-10-16T10:02:44.621Z,99572.77
2018-10-16T10:05:13.227Z,99570.92
2018-10-16T10:07:41.828Z,99569.53
2018-10-16T10:10:10.742Z,99562.78
2018-10-16T10:12:39.405Z,99558.19
2018-10-16T10:15:08.090Z,99557.08
2018-10-16T10:17:37.100Z,99549.67
2018-10-16T10:20:06.145Z,99555.48
2018-10-16T10:22:34.797Z,99550.06
2018-10-16T10:25:03.438Z,99545.16
2018-10-16T10:27:32.505Z,99541.14
2018-10-16T10:30:01.867Z,99534.10
2018-10-16T10:32:31.016Z,99538.64
2018-10-16T10:34:59.871Z,99534.16
2018-10-16T10:37:28.468Z,99533.82
2018-10-16T10:39:57.026Z,99536.25
2018-10-16T10:42:25.617Z,99527.59
2018-10-16T10:44:54.197Z,99531.02
2018-10-16T10:47:22.807Z,99530.09
2018-10-16T10:49:51.954Z,99531.44
2018-10-16T10:52:20.498Z,99537.70
2018-10-16T10:54:49.137Z,99535.19
2018-10-16T10:57:17.827Z,99538.89
2018-10-16T10:59:46.350Z,99531.84
2018-10-16T11:02:21.074Z,99534.34
2018-10-16T11:04:50.226Z,99535.98
2018-10-16T11:07:18.843Z,99541.92
2018-10-16T11:09:47.449Z,99539.78
2018-10-16T11:12:16.007Z,99546.91
2018-10-16T11:14:44.602Z,99544.50
2018-10-16T11:17:13.180Z,99553.14
2018-10-16T11:19:41.758Z,99547.61
2018-10-16T11:22:10.336Z,99546.84
2018-10-16T11:24:38.936Z,99543.53
2018-10-16T11:27:07.522Z,99544.55
2018-10-16T11:29:36.101Z,99546.70
2018-10-16T11:32:04.670Z,99537.32
2018-10-16T11:34:33.285Z,99538.73
2018-10-16T11:37:01.898Z,99540.75
2018-10-16T11:39:30.425Z,99534.94
2018-10-16T11:42:05.454Z,99537.17
2018-10-16T11:44:34.290Z,99533.84
2018-10-16T11:47:03.051Z,99530.82
2018-10-16T11:49:32.197Z,99527.66
2018-10-16T11:52:00.757Z,99526.61
2018-10-16T11:54:29.336Z,99526.27
2018-10-16T11:56:58.570Z,99523.09
2018-10-16T11:59:27.313Z,99526.46
2018-10-16T12:01:55.945Z,99528.25
2018-10-16T12:04:24.516Z,99522.45
2018-10-16T12:06:53.173Z,99526.59
2018-10-16T12:09:23.221Z,99519.91
2018-10-16T12:11:52.340Z,99524.05
2018-10-16T12:14:24.273Z,99523.58
2018-10-16T12:16:58.450Z,99515.08
2018-10-16T12:19:33.882Z,99521.37
2018-10-16T12:22:02.442Z,99517.59
2018-10-16T12:24:30.996Z,99520.98
2018-10-16T12:26:59.605Z,99516.89
2018-10-16T12:29:31.617Z,99523.03
2018-10-16T12:32:00.184Z,99519.53
2018-10-16T12:34:28.753Z,99515.08
2018-10-16T12:37:04.017Z,99514.86
2018-10-16T12:39:39.565Z,99513.64
2018-10-16T12:42:08.565Z,99516.03
2018-10-16T12:44:40.953Z,99518.20
2018-10-16T12:47:10.959Z,99517.78
2018-10-16T12:49:47.640Z,99519.27
2018-10-16T12:52:17.640Z,99521.03
2018-10-16T12:54:47.440Z,99518.70
2018-10-16T12:57:17.226Z,99522.75
2018-10-16T12:59:47.270Z,99516.45
2018-10-16T13:02:18.190Z,99514.38
2018-10-16T13:04:49.173Z,99513.20
2018-10-16T13:07:25.205Z,99514.38
2018-10-16T13:09:56.760Z,99512.73
2018-10-16T13:12:25.582Z,99512.44
2018-10-16T13:14:55.257Z,99509.89
2018-10-16T13:17:31.771Z,99511.58
2018-10-16T13:20:04.430Z,99511.04
2018-10-16T13:22:34.826Z,99518.23
2018-10-16T13:25:04.832Z,99522.27
2018-10-16T13:27:38.958Z,99524.08
2018-10-16T13:30:13.789Z,99527.45
2018-10-16T13:32:45.394Z,99525.77
2018-10-16T13:35:15.553Z,99525.26
2018-10-16T13:37:45.928Z,99528.28
2018-10-16T13:40:15.514Z,99529.80
2018-10-16T13:42:48.633Z,99525.15
2018-10-16T13:45:19.927Z,99528.01
2018-10-16T13:50:26.157Z,99526.42
2018-10-16T13:52:57.306Z,99528.78
2018-10-16T13:55:29.733Z,99525.26
2018-10-16T13:58:02.068Z,99526.61
2018-10-16T14:00:30.763Z,99527.59
2018-10-16T14:02:59.728Z,99532.27
2018-10-16T14:05:30.478Z,99533.46
2018-10-16T14:07:59.102Z,99533.30
2018-10-16T14:10:36.624Z,99535.45
2018-10-16T14:13:10.591Z,99532.63
2018-10-16T14:15:39.549Z,99532.28
2018-10-16T14:18:09.760Z,99534.27
2018-10-16T14:20:41.764Z,99530.23
2018-10-16T14:23:10.391Z,99532.54
2018-10-16T14:25:46.472Z,99530.20
2018-10-16T14:28:21.837Z,99531.00
2018-10-16T14:30:54.210Z,99530.66
2018-10-16T14:33:29.806Z,99534.16
2018-10-16T14:36:08.577Z,99530.34
2018-10-16T14:38:44.562Z,99533.81
2018-10-16T14:41:25.130Z,99528.47
2018-10-16T14:44:00.559Z,99524.27
2018-10-16T14:46:35.676Z,99527.77
2018-10-16T14:55:02.904Z,99521.09
2018-10-16T14:57:40.960Z,99522.58
2018-10-16T15:00:19.265Z,99519.38
2018-10-16T15:02:55.172Z,99511.67
2018-10-16T15:05:32.218Z,99515.69
2018-10-16T15:08:04.155Z,99513.33
2018-10-16T15:10:33.315Z,99513.45
2018-10-16T15:13:07.325Z,99509.61
2018-10-16T15:18:06.850Z,99507.94
2018-10-16T15:20:43.651Z,99511.20
2018-10-16T15:23:15.048Z,99510.55
2018-10-16T15:25:44.460Z,99511.84
2018-10-16T15:28:15.513Z,99505.72
2018-10-16T15:30:45.801Z,99511.92
2018-10-16T15:33:16.036Z,99510.18
2018-10-16T15:35:44.597Z,99515.56
2018-10-16T15:38:13.255Z,99507.52
2018-10-16T15:40:41.733Z,99505.84
2018-10-16T15:43:10.301Z,99513.55
2018-10-16T15:45:38.838Z,99513.55
2018-10-16T15:48:07.485Z,99506.20
2018-10-16T15:50:36.047Z,99510.70
2018-10-16T15:53:04.629Z,99512.18
2018-10-16T15:55:33.160Z,99507.64
2018-10-16T15:58:01.793Z,99502.41
2018-10-16T16:00:30.278Z,99510.08
2018-10-16T16:02:58.843Z,99507.34
2018-10-16T16:05:27.368Z,99509.61
2018-10-16T16:07:56.219Z,99509.77
2018-10-16T16:10:24.953Z,99507.05
2018-10-16T16:12:54.317Z,99503.44
2018-10-16T16:15:22.873Z,99504.46
2018-10-16T16:17:53.202Z,99509.05
2018-10-16T16:20:23.543Z,99505.75
2018-10-16T16:22:52.256Z,99512.41
2018-10-16T16:25:21.968Z,99515.91
2018-10-16T16:27:50.682Z,99519.23
2018-10-16T16:30:19.229Z,99521.36
2018-10-16T16:32:47.797Z,99518.33
2018-10-16T16:35:16.385Z,99520.19
2018-10-16T16:37:44.945Z,99522.45
2018-10-16T16:40:14.594Z,99520.13
2018-10-16T16:42:43.449Z,99537.39
2018-10-16T16:45:20.648Z,99530.47
2018-10-16T16:47:50.508Z,99538.14
2018-10-16T16:50:20.327Z,99539.01
2018-10-16T16:52:50.293Z,99537.45
2018-10-16T16:55:21.638Z,99539.89
2018-10-16T16:57:50.939Z,99541.41
2018-10-16T17:00:20.890Z,99547.42
2018-10-16T17:02:50.256Z,99549.94
2018-10-16T17:05:19.029Z,99551.42
2018-10-16T17:07:54.555Z,99554.67
2018-10-16T17:10:25.723Z,99560.73
2018-10-16T17:12:59.324Z,99562.45
2018-10-16T17:15:30.894Z,99568.28
2018-10-16T17:18:02.650Z,99567.16
2018-10-16T17:23:09.963Z,99574.98
2018-10-16T17:25:38.938Z,99571.27
2018-10-16T17:28:08.755Z,99576.30
2018-10-16T17:30:39.642Z,99579.19
2018-10-16T17:33:10.146Z,99579.67
2018-10-16T17:35:39.136Z,99579.78
2018-10-16T17:38:07.701Z,99582.42
2018-10-16T17:40:36.357Z,99583.36
2018-10-16T17:43:06.925Z,99581.02
2018-10-16T17:45:35.504Z,99582.19
2018-10-16T17:48:04.182Z,99587.58
2018-10-16T17:50:32.733Z,99585.66
2018-10-16T17:53:01.339Z,99588.42
2018-10-16T17:55:32.537Z,99589.55
2018-10-16T17:58:01.144Z,99594.24
2018-10-16T18:00:29.700Z,99593.47
2018-10-16T18:03:00.462Z,99590.88
2018-10-16T18:05:29.234Z,99591.84
2018-10-16T18:07:59.547Z,99595.95
2018-10-16T18:10:28.263Z,99593.75
2018-10-16T18:12:59.057Z,99596.30
2018-10-16T18:15:30.325Z,99597.89
2018-10-16T18:17:58.923Z,99600.98
2018-10-16T18:20:27.512Z,99600.08
2018-10-16T18:22:57.274Z,99604.66
2018-10-16T18:25:25.875Z,99596.95
2018-10-16T18:27:54.401Z,99600.69
2018-10-16T18:30:24.721Z,99602.65
2018-10-16T18:32:53.309Z,99601.52
2018-10-16T18:35:21.875Z,99599.95
2018-10-16T18:37:50.492Z,99603.14
2018-10-16T18:40:19.066Z,99605.47
2018-10-16T18:42:47.618Z,99607.07
2018-10-16T18:45:17.760Z,99600.89
2018-10-16T18:47:47.704Z,99603.91
2018-10-16T18:50:16.265Z,99603.98
2018-10-16T18:52:47.956Z,99607.09
2018-10-16T18:55:16.620Z,99606.71
2018-10-16T18:57:45.153Z,99604.78
2018-10-16T19:00:16.570Z,99605.37
2018-10-16T19:02:48.473Z,99609.84
2018-10-16T19:05:19.333Z,99608.32
2018-10-16T19:07:52.013Z,99608.18
2018-10-16T19:10:20.896Z,99611.03
2018-10-16T19:12:56.191Z,99620.78
2018-10-16T19:15:30.159Z,99617.34
2018-10-16T19:18:01.617Z,99622.21
2018-10-16T19:20:36.224Z,99626.34
2018-10-16T19:23:06.132Z,99620.48
2018-10-16T19:25:34.753Z,99624.82
2018-10-16T19:28:03.368Z,99620.20
2018-10-16T19:30:31.931Z,99627.02
2018-10-16T19:33:00.527Z,99623.06
2018-10-16T19:35:29.062Z,99626.02
2018-10-16T19:38:00.741Z,99624.31
2018-10-16T19:40:29.450Z,99626.83
2018-10-16T19:42:57.993Z,99628.73
2018-10-16T19:45:36.434Z,99623.73
2018-10-16T19:48:06.180Z,99621.80
2018-10-16T19:50:35.126Z,99626.45
2018-10-16T19:53:04.786Z,99622.78
2018-10-16T19:55:36.451Z,99629.81
2018-10-16T19:58:06.341Z,99626.59
2018-10-16T20:00:38.197Z,99624.55
2018-10-16T20:03:07.066Z,99632.23
2018-10-16T20:05:35.553Z,99633.66
2018-10-16T20:08:05.960Z,99626.46
2018-10-16T20:10:35.716Z,99633.50
2018-10-16T20:13:04.328Z,99636.32
2018-10-16T20:15:33.092Z,99645.27
2018-10-16T20:18:07.680Z,99638.77
2018-10-16T20:20:41.125Z,99638.98
2018-10-16T20:23:11.469Z,99638.16
2018-10-16T20:25:44.702Z,99636.40
2018-10-16T20:28:15.542Z,99644.05
2018-10-16T20:30:50.524Z,99644.73
2018-10-16T20:33:20.877Z,99643.67
2018-10-16T20:35:54.087Z,99643.22
2018-10-16T20:38:24.554Z,99644.77
2018-10-16T20:40:55.333Z,99643.41
2018-10-16T20:43:27.109Z,99643.67
2018-10-16T20:45:56.423Z,99639.91
2018-10-16T20:48:26.028Z,99647.53
2018-10-16T20:51:00.989Z,99650.45
2018-10-16T20:53:33.216Z,99646.23
2018-10-16T20:56:01.970Z,99651.42
2018-10-16T20:58:35.281Z,99651.31
2018-10-16T21:01:04.129Z,99646.35
2018-10-16T21:03:32.666Z,99633.67
2018-10-16T21:06:09.356Z,99651.64
2018-10-16T21:08:39.600Z,99651.45
2018-10-16T21:11:10.064Z,99644.20
2018-10-16T21:13:40.180Z,99652.17
2018-10-16T21:16:08.753Z,99642.77
2018-10-16T21:18:37.845Z,99644.92
2018-10-16T21:21:12.714Z,99654.62
2018-10-16T21:23:41.460Z,99650.02
2018-10-16T21:26:14.225Z,99644.95
2018-10-16T21:28:44.420Z,99639.23
2018-10-16T21:31:15.581Z,99638.55
2018-10-16T21:33:45.467Z,99639.50
2018-10-16T21:36:15.914Z,99646.52
2018-10-16T21:38:46.184Z,99642.05
2018-10-16T21:41:15.607Z,99648.09
2018-10-16T21:43:47.418Z,99646.91
2018-10-16T21:46:16.817Z,99649.94
2018-10-16T21:48:45.381Z,99649.94
2018-10-16T21:51:14.057Z,99651.68
2018-10-16T21:53:44.265Z,99652.33
2018-10-16T21:56:13.545Z,99649.05
2018-10-16T21:58:43.959Z,99647.88
2018-10-16T22:01:13.934Z,99643.67
2018-10-16T22:03:43.980Z,99642.39
2018-10-16T22:06:13.686Z,99645.77
2018-10-16T22:08:43.952Z,99645.61
2018-10-16T22:11:12.590Z,99646.64
2018-10-16T22:13:41.088Z,99645.52
2018-10-16T22:16:15.971Z,99638.95
2018-10-16T22:18:48.105Z,99640.53
2018-10-16T22:21:16.895Z,99640.71
2018-10-16T22:23:47.960Z,99635.75
2018-10-16T22:26:17.669Z,99638.55
2018-10-16T22:28:47.673Z,99638.08
2018-10-16T22:31:17.202Z,99634.30
2018-10-16T22:33:46.274Z,99639.02
2018-10-16T22:36:16.627Z,99637.67
2018-10-16T22:38:45.897Z,99638.20
2018-10-16T22:41:15.601Z,99642.64
2018-10-16T22:43:44.682Z,99644.14
2018-10-16T22:46:13.506Z,99636.70
2018-10-16T22:48:45.060Z,99644.27
2018-10-16T22:51:14.590Z,99641.16
2018-10-16T22:53:44.284Z,99639.50
2018-10-16T22:56:12.820Z,99637.97
2018-10-16T22:58:42.680Z,99637.08
2018-10-16T23:01:12.139Z,99637.64
2018-10-16T23:03:40.756Z,99631.94
2018-10-16T23:06:10.100Z,99636.86
2018-10-16T23:08:40.233Z,99636.30
2018-10-16T23:11:08.842Z,99637.02
2018-10-16T23:13:38.299Z,99636.16
2018-10-16T23:16:07.504Z,99631.64
2018-10-16T23:18:36.966Z,99633.54
2018-10-16T23:21:06.189Z,99632.20
2018-10-16T23:23:35.363Z,99629.13
2018-10-16T23:26:04.236Z,99627.63
2018-10-16T23:28:33.539Z,99623.92
2018-10-16T23:31:03.042Z,99616.36
2018-10-16T23:33:31.750Z,99627.92
2018-10-16T23:36:00.860Z,99623.62
2018-10-16T23:38:29.497Z,99626.42
2018-10-16T23:41:02.022Z,99618.23
2018-10-16T23:43:31.550Z,99616.38
2018-10-16T23:46:01.247Z,99614.66
2018-10-16T23:48:31.488Z,99618.55
2018-10-16T23:51:01.358Z,99619.23
2018-10-16T23:53:32.242Z,99619.07
2018-10-16T23:56:01.556Z,99619.89
2018-10-16T23:58:31.829Z,99613.30
